createdAt,value
2019-05-17T00:03:08.300Z,1005.74
2019-05-17T00:08:03.821Z,1005.69
2019-05-17T00:12:59.873Z,1005.60
2019-05-17T00:17:57.093Z,1005.58
2019-05-17T00:22:52.325Z,1005.43
2019-05-17T00:27:48.307Z,1005.35
2019-05-17T00:32:44.190Z,1005.23
2019-05-17T00:37:39.915Z,1005.18
2019-05-17T00:42:37.248Z,1005.20
2019-05-17T00:47:32.915Z,1005.15
2019-05-17T00:52:28.896Z,1005.09
2019-05-17T00:57:27.204Z,1005.07
2019-05-17T01:02:23.483Z,1005.02
2019-05-17T01:07:19.096Z,1004.88
2019-05-17T01:12:16.439Z,1004.81
2019-05-17T01:17:11.785Z,1004.79
2019-05-17T01:22:07.736Z,1004.74
2019-05-17T01:27:03.433Z,1004.66
2019-05-17T01:31:59.293Z,1004.66
2019-05-17T01:36:56.870Z,1004.71
2019-05-17T01:41:52.250Z,1004.62
2019-05-17T01:46:48.103Z,1004.59
2019-05-17T01:51:46.326Z,1004.62
2019-05-17T01:56:42.645Z,1004.50
2019-05-17T02:01:38.310Z,1004.47
2019-05-17T02:06:36.403Z,1004.46
2019-05-17T02:11:31.658Z,1004.47
2019-05-17T02:16:27.591Z,1004.46
2019-05-17T02:21:23.177Z,1004.44
2019-05-17T02:26:19.228Z,1004.35
2019-05-17T02:31:14.984Z,1004.37
2019-05-17T02:36:13.915Z,1004.37
2019-05-17T02:41:13.826Z,1004.35
2019-05-17T02:46:09.074Z,1004.20
2019-05-17T02:51:04.705Z,1004.26
2019-05-17T02:56:03.217Z,1004.20
2019-05-17T03:00:58.560Z,1004.19
2019-05-17T03:05:53.895Z,1004.17
2019-05-17T03:10:49.722Z,1004.19
2019-05-17T03:15:45.449Z,1004.17
2019-05-17T03:20:43.165Z,1004.15
2019-05-17T03:25:38.726Z,1004.11
2019-05-17T03:30:37.019Z,1004.04
2019-05-17T03:35:37.761Z,1003.97
2019-05-17T03:41:02.311Z,1004.04
2019-05-17T03:45:34.252Z,1003.86
2019-05-17T03:50:33.203Z,1003.88
2019-05-17T03:55:32.800Z,1003.95
2019-05-17T04:00:27.984Z,1003.84
2019-05-17T04:05:23.823Z,1003.80
2019-05-17T04:10:22.626Z,1003.80
2019-05-17T04:15:17.838Z,1003.75
2019-05-17T04:20:14.022Z,1003.67
2019-05-17T04:25:13.121Z,1003.69
2019-05-17T04:30:08.606Z,1003.80
2019-05-17T04:35:04.449Z,1003.73
2019-05-17T04:40:03.502Z,1003.75
2019-05-17T04:44:59.003Z,1003.84
2019-05-17T04:49:55.141Z,1003.74
2019-05-17T04:54:53.729Z,1003.72
2019-05-17T04:59:52.330Z,1003.73
2019-05-17T05:04:49.455Z,1003.70
2019-05-17T05:09:44.968Z,1003.69
2019-05-17T05:14:43.115Z,1003.71
2019-05-17T05:19:38.169Z,1003.59
2019-05-17T05:24:34.044Z,1003.54
2019-05-17T05:29:29.428Z,1003.50
2019-05-17T05:34:25.011Z,1003.67
2019-05-17T05:39:22.710Z,1003.60
2019-05-17T05:44:21.409Z,1003.65
2019-05-17T05:49:16.585Z,1003.62
2019-05-17T05:54:12.821Z,1003.63
2019-05-17T05:59:08.631Z,1003.62
2019-05-17T06:04:04.545Z,1003.61
2019-05-17T06:09:02.707Z,1003.58
2019-05-17T06:13:58.480Z,1003.54
2019-05-17T06:18:55.465Z,1003.45
2019-05-17T06:23:51.648Z,1003.40
2019-05-17T06:28:47.420Z,1003.40
2019-05-17T06:33:43.340Z,1003.41
2019-05-17T06:38:39.278Z,1003.46
2019-05-17T06:43:35.070Z,1003.50
2019-05-17T06:48:32.032Z,1003.45
2019-05-17T06:53:27.814Z,1003.48
2019-05-17T06:58:24.673Z,1003.48
2019-05-17T07:03:20.381Z,1003.50
2019-05-17T07:08:16.184Z,1003.43
2019-05-17T07:13:11.979Z,1003.41
2019-05-17T07:18:10.266Z,1003.38
2019-05-17T07:23:06.562Z,1003.35
2019-05-17T07:28:02.000Z,1003.37
2019-05-17T07:33:00.199Z,1003.26
2019-05-17T07:37:56.037Z,1003.22
2019-05-17T07:43:05.724Z,1003.18
2019-05-17T07:47:53.644Z,1003.22
2019-05-17T07:52:50.654Z,1003.11
2019-05-17T07:57:46.753Z,1003.07
2019-05-17T08:02:42.742Z,1003.02
2019-05-17T08:07:40.523Z,1002.95
2019-05-17T08:12:35.680Z,1002.89
2019-05-17T08:17:31.517Z,1002.80
2019-05-17T08:22:26.728Z,1002.79
2019-05-17T08:27:22.824Z,1002.81
2019-05-17T08:32:20.609Z,1002.80
2019-05-17T08:37:15.275Z,1002.78
2019-05-17T08:42:11.560Z,1002.81
2019-05-17T08:47:07.490Z,1002.81
2019-05-17T08:52:03.720Z,1002.74
2019-05-17T08:57:00.639Z,1002.70
2019-05-17T09:01:56.953Z,1002.74
2019-05-17T09:06:52.868Z,1002.67
2019-05-17T09:11:50.123Z,1002.60
2019-05-17T09:16:45.951Z,1002.59
2019-05-17T09:21:42.742Z,1002.50
2019-05-17T09:26:39.898Z,1002.60
2019-05-17T09:31:36.034Z,1002.55
2019-05-17T09:36:32.624Z,1002.55
2019-05-17T09:41:29.353Z,1002.45
2019-05-17T09:46:25.506Z,1002.45
2019-05-17T09:51:23.161Z,1002.37
2019-05-17T09:56:20.697Z,1002.16
2019-05-17T10:01:19.503Z,1002.17
2019-05-17T10:06:14.203Z,1002.18
2019-05-17T10:11:12.104Z,1002.17
2019-05-17T10:16:07.092Z,1002.15
2019-05-17T10:21:02.502Z,1002.07
2019-05-17T10:25:59.536Z,1002.04
2019-05-17T10:30:56.380Z,1002.14
2019-05-17T10:35:51.855Z,1002.00
2019-05-17T10:40:49.989Z,1002.04
2019-05-17T10:45:45.967Z,1002.04
2019-05-17T10:50:42.258Z,1002.06
2019-05-17T10:55:39.868Z,1001.94
2019-05-17T11:00:37.293Z,1001.93
2019-05-17T11:05:34.393Z,1001.91
2019-05-17T11:10:31.711Z,1001.92
2019-05-17T11:15:27.491Z,1001.90
2019-05-17T11:20:24.158Z,1001.99
2019-05-17T11:25:19.624Z,1001.95
2019-05-17T11:30:16.345Z,1001.95
2019-05-17T11:35:11.902Z,1001.88
2019-05-17T11:40:08.804Z,1001.91
2019-05-17T11:45:04.350Z,1001.87
2019-05-17T11:50:00.515Z,1001.89
2019-05-17T11:54:57.184Z,1001.94
2019-05-17T11:59:54.222Z,1001.87
2019-05-17T12:04:50.451Z,1001.86
2019-05-17T12:09:46.265Z,1001.88
2019-05-17T12:14:42.292Z,1001.88
2019-05-17T12:19:38.437Z,1001.94
2019-05-17T12:24:35.839Z,1001.79
2019-05-17T12:29:32.999Z,1001.84
2019-05-17T12:34:28.981Z,1001.73
2019-05-17T12:39:25.912Z,1001.70
2019-05-17T12:44:22.772Z,1001.70
2019-05-17T12:49:18.368Z,1001.62
2019-05-17T12:54:14.376Z,1001.63
2019-05-17T12:59:10.078Z,1001.61
2019-05-17T13:04:05.769Z,1001.67
2019-05-17T13:09:01.742Z,1001.60
2019-05-17T13:13:57.198Z,1001.59
2019-05-17T13:18:53.114Z,1001.61
2019-05-17T13:23:49.794Z,1001.64
2019-05-17T13:28:46.477Z,1001.59
2019-05-17T13:33:42.598Z,1001.56
2019-05-17T13:38:39.613Z,1001.45
2019-05-17T13:43:35.395Z,1001.44
2019-05-17T13:48:31.825Z,1001.39
2019-05-17T13:53:27.530Z,1001.32
2019-05-17T13:58:26.558Z,1001.28
2019-05-17T14:03:24.550Z,1001.27
2019-05-17T14:08:20.281Z,1001.21
2019-05-17T14:13:16.148Z,1001.23
2019-05-17T14:18:11.445Z,1001.34
2019-05-17T14:23:07.134Z,1001.29
2019-05-17T14:28:04.554Z,1001.27
2019-05-17T14:33:00.151Z,1001.31
2019-05-17T14:37:56.401Z,1001.32
2019-05-17T14:42:52.216Z,1001.22
2019-05-17T14:47:48.020Z,1001.16
2019-05-17T14:52:44.140Z,1001.19
2019-05-17T14:57:42.822Z,1001.18
2019-05-17T15:02:38.226Z,1001.23
2019-05-17T15:07:33.846Z,1001.15
2019-05-17T15:12:30.370Z,1001.12
2019-05-17T15:17:26.127Z,1001.10
2019-05-17T15:22:21.751Z,1001.12
2019-05-17T15:27:17.894Z,1001.05
2019-05-17T15:32:14.666Z,1000.98
2019-05-17T15:37:11.283Z,1000.99
2019-05-17T15:42:07.021Z,1001.01
2019-05-17T15:47:02.933Z,1000.95
2019-05-17T15:51:59.939Z,1000.93
2019-05-17T15:56:55.980Z,1000.95
2019-05-17T16:01:52.706Z,1000.93
2019-05-17T16:06:48.121Z,1000.83
2019-05-17T16:11:44.075Z,1000.79
2019-05-17T16:16:40.236Z,1000.74
2019-05-17T16:21:35.647Z,1000.69
2019-05-17T16:26:31.466Z,1000.65
2019-05-17T16:31:28.130Z,1000.55
2019-05-17T16:36:23.510Z,1000.61
2019-05-17T16:41:19.875Z,1000.60
2019-05-17T16:46:15.674Z,1000.59
2019-05-17T16:51:11.470Z,1000.53
2019-05-17T16:56:08.144Z,1000.49
2019-05-17T17:01:04.102Z,1000.55
2019-05-17T17:05:59.819Z,1000.52
2019-05-17T17:10:55.568Z,1000.54
2019-05-17T17:15:51.817Z,1000.60
2019-05-17T17:20:48.433Z,1000.53
2019-05-17T17:25:44.264Z,1000.54
2019-05-17T17:30:41.072Z,1000.47
2019-05-17T17:35:36.564Z,1000.53
2019-05-17T17:40:32.662Z,1000.55
2019-05-17T17:45:28.418Z,1000.52
2019-05-17T17:50:24.565Z,1000.44
2019-05-17T17:55:20.584Z,1000.50
2019-05-17T18:00:16.230Z,1000.49
2019-05-17T18:05:12.337Z,1000.44
2019-05-17T18:10:09.232Z,1000.37
2019-05-17T18:15:06.491Z,1000.36
2019-05-17T18:20:01.533Z,1000.29
2019-05-17T18:24:57.640Z,1000.34
2019-05-17T18:29:53.504Z,1000.42
2019-05-17T18:34:50.104Z,1000.41
2019-05-17T18:39:45.871Z,1000.47
2019-05-17T18:44:42.104Z,1000.44
2019-05-17T18:49:39.438Z,1000.49
2019-05-17T18:54:34.976Z,1000.52
2019-05-17T18:59:30.970Z,1000.52
2019-05-17T19:04:27.070Z,1000.51
2019-05-17T19:09:22.866Z,1000.54
2019-05-17T19:14:18.634Z,1000.50
2019-05-17T19:19:14.579Z,1000.62
2019-05-17T19:24:10.098Z,1000.68
2019-05-17T19:29:05.860Z,1000.70
2019-05-17T19:34:01.683Z,1000.76
2019-05-17T19:38:58.757Z,1000.82
2019-05-17T19:43:54.303Z,1000.78
2019-05-17T19:48:50.439Z,1000.81
2019-05-17T19:53:46.789Z,1000.86
2019-05-17T19:58:42.424Z,1000.86
2019-05-17T20:03:38.550Z,1000.86
2019-05-17T20:08:34.355Z,1000.80
2019-05-17T20:13:30.803Z,1000.80
2019-05-17T20:18:27.849Z,1000.87
2019-05-17T20:23:25.529Z,1000.86
2019-05-17T20:28:21.995Z,1000.81
2019-05-17T20:33:17.839Z,1000.75
2019-05-17T20:38:14.616Z,1000.82
2019-05-17T20:43:10.276Z,1000.71
2019-05-17T20:48:06.161Z,1000.63
2019-05-17T20:53:01.531Z,1000.67
2019-05-17T20:57:57.887Z,1000.61
2019-05-17T21:02:53.621Z,1000.61
2019-05-17T21:07:49.316Z,1000.67
2019-05-17T21:12:45.526Z,1000.67
2019-05-17T21:17:41.472Z,1000.72
2019-05-17T21:22:37.187Z,1000.66
2019-05-17T21:27:32.945Z,1000.60
2019-05-17T21:32:28.771Z,1000.68
2019-05-17T21:37:24.792Z,1000.66
2019-05-17T21:42:20.449Z,1000.69
2019-05-17T21:47:15.945Z,1000.62
2019-05-17T21:52:11.799Z,1000.63
2019-05-17T21:57:07.423Z,1000.53
2019-05-17T22:02:03.151Z,1000.46
2019-05-17T22:06:58.901Z,1000.57
2019-05-17T22:11:54.887Z,1000.55
2019-05-17T22:16:50.661Z,1000.44
2019-05-17T22:21:46.150Z,1000.56
2019-05-17T22:26:42.301Z,1000.54
2019-05-17T22:31:39.004Z,1000.46
2019-05-17T22:36:34.409Z,1000.48
2019-05-17T22:41:31.632Z,1000.45
2019-05-17T22:46:35.772Z,1000.36
2019-05-17T22:51:26.537Z,1000.32
2019-05-17T22:56:21.949Z,1000.39
2019-05-17T23:01:17.799Z,1000.41
2019-05-17T23:06:14.590Z,1000.33
2019-05-17T23:11:10.440Z,1000.31
2019-05-17T23:16:06.469Z,1000.28
2019-05-17T23:21:02.227Z,1000.33
2019-05-17T23:25:57.888Z,1000.26
2019-05-17T23:30:53.743Z,1000.19
2019-05-17T23:35:49.555Z,1000.16
2019-05-17T23:40:45.335Z,1000.10
2019-05-17T23:45:41.270Z,1000.16
2019-05-17T23:50:37.192Z,1000.19
2019-05-17T23:55:32.893Z,1000.23
